createdAt,value
2024-02-11T00:00:09.183Z,0.80
2024-02-11T00:02:38.649Z,0.57
2024-02-11T00:05:09.359Z,0.80
2024-02-11T00:07:44.016Z,0.88
2024-02-11T00:10:11.738Z,0.90
2024-02-11T00:12:40.028Z,0.90
2024-02-11T00:15:10.264Z,0.75
2024-02-11T00:17:38.450Z,0.57
2024-02-11T00:20:17.366Z,0.45
2024-02-11T00:22:50.112Z,0.68
2024-02-11T00:25:18.420Z,0.50
2024-02-11T00:27:51.205Z,0.82
2024-02-11T00:30:23.398Z,0.50
2024-02-11T00:32:51.243Z,0.70
2024-02-11T00:35:19.395Z,0.65
2024-02-11T00:37:47.477Z,0.43
2024-02-11T00:40:15.739Z,0.60
2024-02-11T00:42:43.547Z,0.77
2024-02-11T00:45:13.647Z,0.75
2024-02-11T00:47:42.800Z,0.73
2024-02-11T00:50:15.342Z,0.98
2024-02-11T00:52:43.175Z,0.50
2024-02-11T00:55:11.593Z,0.68
2024-02-11T00:57:39.779Z,0.88
2024-02-11T01:00:12.087Z,0.63
2024-02-11T01:02:39.960Z,0.65
2024-02-11T01:05:09.828Z,0.88
2024-02-11T01:07:42.350Z,0.47
2024-02-11T01:10:11.466Z,0.55
2024-02-11T01:12:40.510Z,0.70
2024-02-11T01:15:08.856Z,0.47
2024-02-11T01:17:36.508Z,0.45
2024-02-11T01:20:04.941Z,0.75
2024-02-11T01:22:34.719Z,0.60
2024-02-11T01:25:02.293Z,0.70
2024-02-11T01:29:58.133Z,0.65
2024-02-11T01:32:25.825Z,0.93
2024-02-11T01:37:22.006Z,0.65
2024-02-11T01:39:51.010Z,0.65
2024-02-11T01:42:18.660Z,0.50
2024-02-11T01:47:13.723Z,0.70
2024-02-11T01:49:41.473Z,0.60
2024-02-11T01:52:09.908Z,0.77
2024-02-11T01:54:37.786Z,0.55
2024-02-11T01:57:07.209Z,0.38
2024-02-11T01:59:39.750Z,0.60
2024-02-11T02:02:10.571Z,0.73
2024-02-11T02:04:39.129Z,0.50
2024-02-11T02:07:06.911Z,0.52
2024-02-11T02:09:34.517Z,0.45
2024-02-11T02:14:35.389Z,0.80
2024-02-11T02:17:03.313Z,0.70
2024-02-11T02:19:31.000Z,0.68
2024-02-11T02:24:27.419Z,0.38
2024-02-11T02:29:22.550Z,0.68
2024-02-11T02:31:50.226Z,0.50
2024-02-11T02:36:45.310Z,0.55
2024-02-11T02:39:14.435Z,0.57
2024-02-11T02:41:42.104Z,0.57
2024-02-11T02:46:37.508Z,0.40
2024-02-11T02:49:05.084Z,0.63
2024-02-11T02:54:04.736Z,0.65
2024-02-11T02:56:35.708Z,0.70
2024-02-11T02:59:07.064Z,0.60
2024-02-11T03:01:34.820Z,0.70
2024-02-11T03:06:30.565Z,0.40
2024-02-11T03:11:25.553Z,0.50
2024-02-11T03:16:22.468Z,0.60
2024-02-11T03:18:50.887Z,0.63
2024-02-11T03:21:18.779Z,0.70
2024-02-11T03:23:46.405Z,0.70
2024-02-11T03:28:42.275Z,0.40
2024-02-11T03:31:11.225Z,0.43
2024-02-11T03:33:39.143Z,0.45
2024-02-11T03:36:07.384Z,0.47
2024-02-11T03:38:34.990Z,0.65
2024-02-11T03:41:02.638Z,0.73
2024-02-11T03:43:30.204Z,0.43
2024-02-11T03:45:59.013Z,0.73
2024-02-11T03:48:28.097Z,0.80
2024-02-11T03:50:55.719Z,0.20
2024-02-11T03:53:23.355Z,0.88
2024-02-11T03:58:18.430Z,0.47
2024-02-11T04:03:15.522Z,0.50
2024-02-11T04:05:45.108Z,0.70
2024-02-11T04:08:16.926Z,0.52
2024-02-11T04:10:44.713Z,0.50
2024-02-11T04:13:13.327Z,0.70
2024-02-11T04:15:40.999Z,0.50
2024-02-11T04:18:09.470Z,0.73
2024-02-11T04:20:38.122Z,0.43
2024-02-11T04:23:09.266Z,0.50
2024-02-11T04:25:38.182Z,0.43
2024-02-11T04:28:09.034Z,0.35
2024-02-11T04:30:43.552Z,0.50
2024-02-11T04:33:16.330Z,0.63
2024-02-11T04:35:44.300Z,0.50
2024-02-11T04:40:44.778Z,0.45
2024-02-11T04:43:14.030Z,0.47
2024-02-11T04:45:43.030Z,0.20
2024-02-11T04:48:11.681Z,0.32
2024-02-11T04:50:40.038Z,0.40
2024-02-11T04:53:10.254Z,0.30
2024-02-11T04:55:45.575Z,0.47
2024-02-11T04:58:18.197Z,0.60
2024-02-11T05:00:48.055Z,0.73
2024-02-11T05:03:19.602Z,0.50
2024-02-11T05:05:51.769Z,0.35
2024-02-11T05:08:21.536Z,0.57
2024-02-11T05:10:54.499Z,0.50
2024-02-11T05:13:30.698Z,0.50
2024-02-11T05:16:01.310Z,0.30
2024-02-11T05:18:31.080Z,0.30
2024-02-11T05:20:59.016Z,0.40
2024-02-11T05:25:58.012Z,0.60
2024-02-11T05:28:25.498Z,0.60
2024-02-11T05:30:54.391Z,0.32
2024-02-11T05:33:22.460Z,0.60
2024-02-11T05:35:51.892Z,0.52
2024-02-11T05:38:25.650Z,0.60
2024-02-11T05:43:28.396Z,0.32
2024-02-11T05:45:56.459Z,0.70
2024-02-11T05:48:24.763Z,0.30
2024-02-11T05:50:52.501Z,0.50
2024-02-11T05:53:20.242Z,0.32
2024-02-11T05:55:50.432Z,0.63
2024-02-11T05:58:18.235Z,0.28
2024-02-11T06:00:47.408Z,0.52
2024-02-11T06:03:15.666Z,0.50
2024-02-11T06:05:43.734Z,0.55
2024-02-11T06:08:12.201Z,0.28
2024-02-11T06:10:40.974Z,0.32
2024-02-11T06:13:11.912Z,0.40
2024-02-11T06:15:41.831Z,0.55
2024-02-11T06:18:13.578Z,0.40
2024-02-11T06:20:41.413Z,0.50
2024-02-11T06:23:09.474Z,0.45
2024-02-11T06:25:37.895Z,0.35
2024-02-11T06:28:06.502Z,0.55
2024-02-11T06:30:34.143Z,0.40
2024-02-11T06:35:31.158Z,0.60
2024-02-11T06:38:01.061Z,0.47
2024-02-11T06:40:29.574Z,0.22
2024-02-11T06:43:00.738Z,0.20
2024-02-11T06:45:30.447Z,0.50
2024-02-11T06:48:00.976Z,0.32
2024-02-11T06:50:30.265Z,0.30
2024-02-11T06:52:57.918Z,0.43
2024-02-11T06:55:25.583Z,0.22
2024-02-11T07:00:21.246Z,0.28
2024-02-11T07:02:54.859Z,0.25
2024-02-11T07:05:23.695Z,0.52
2024-02-11T07:07:55.971Z,0.20
2024-02-11T07:10:25.945Z,0.35
2024-02-11T07:12:53.577Z,0.50
2024-02-11T07:17:48.734Z,0.35
2024-02-11T07:20:17.550Z,0.35
2024-02-11T07:22:46.507Z,0.30
2024-02-11T07:25:19.376Z,0.30
2024-02-11T07:27:47.513Z,0.50
2024-02-11T07:30:16.094Z,0.30
2024-02-11T07:32:46.676Z,0.40
2024-02-11T07:35:16.412Z,0.30
2024-02-11T07:37:44.724Z,0.40
2024-02-11T07:40:16.555Z,0.30
2024-02-11T07:42:47.293Z,0.32
2024-02-11T07:45:16.973Z,0.25
2024-02-11T07:47:47.440Z,0.25
2024-02-11T07:50:16.095Z,0.47
2024-02-11T07:52:44.558Z,0.28
2024-02-11T07:55:15.381Z,0.60
2024-02-11T07:57:42.914Z,0.52
2024-02-11T08:00:12.844Z,0.20
2024-02-11T08:02:40.481Z,0.22
2024-02-11T08:05:11.997Z,0.45
2024-02-11T08:07:40.647Z,0.22
2024-02-11T08:10:09.058Z,0.43
2024-02-11T08:12:36.884Z,0.43
2024-02-11T08:17:34.550Z,0.50
2024-02-11T08:20:02.516Z,0.20
2024-02-11T08:22:30.095Z,0.20
2024-02-11T08:25:00.246Z,0.30
2024-02-11T08:27:27.849Z,0.35
2024-02-11T08:32:23.006Z,0.13
2024-02-11T08:34:52.031Z,0.22
2024-02-11T08:37:19.643Z,0.30
2024-02-11T08:42:15.755Z,0.50
2024-02-11T08:44:43.430Z,0.40
2024-02-11T08:49:39.058Z,0.80
2024-02-11T08:52:09.271Z,0.90
2024-02-11T08:54:37.790Z,0.73
2024-02-11T08:57:05.886Z,1.15
2024-02-11T08:59:33.470Z,0.77
2024-02-11T09:04:29.667Z,0.98
2024-02-11T09:06:58.395Z,1.02
2024-02-11T09:09:27.775Z,0.90
2024-02-11T09:11:56.217Z,0.70
2024-02-11T09:14:26.200Z,0.57
2024-02-11T09:16:53.954Z,0.73
2024-02-11T09:19:22.742Z,0.52
2024-02-11T09:21:50.732Z,0.60
2024-02-11T09:24:18.719Z,0.88
2024-02-11T09:26:48.573Z,0.68
2024-02-11T09:29:16.329Z,0.50
2024-02-11T09:31:44.033Z,0.68
2024-02-11T09:34:11.833Z,0.65
2024-02-11T09:36:39.932Z,0.45
2024-02-11T09:39:07.594Z,0.70
2024-02-11T09:44:05.805Z,0.80
2024-02-11T09:46:37.097Z,0.38
2024-02-11T09:49:10.389Z,0.50
2024-02-11T09:51:38.242Z,0.40
2024-02-11T09:54:06.960Z,0.50
2024-02-11T09:56:34.980Z,0.40
2024-02-11T09:59:05.091Z,0.40
2024-02-11T10:01:34.935Z,0.47
2024-02-11T10:04:05.943Z,0.90
2024-02-11T10:06:36.034Z,0.60
2024-02-11T10:09:05.559Z,0.47
2024-02-11T10:11:34.466Z,0.60
2024-02-11T10:14:02.208Z,0.75
2024-02-11T10:19:00.179Z,1.08
2024-02-11T10:21:28.161Z,1.55
2024-02-11T10:23:56.112Z,1.42
2024-02-11T10:26:23.849Z,1.77
2024-02-11T10:29:07.235Z,1.55
2024-02-11T10:31:36.919Z,1.80
2024-02-11T10:34:05.153Z,1.83
2024-02-11T10:36:35.431Z,1.92
2024-02-11T10:39:03.460Z,1.70
2024-02-11T10:41:31.517Z,1.50
2024-02-11T10:43:59.723Z,1.65
2024-02-11T10:46:28.123Z,1.85
2024-02-11T10:48:57.871Z,1.75
2024-02-11T10:51:32.920Z,1.73
2024-02-11T10:54:03.085Z,1.85
2024-02-11T10:56:31.706Z,1.73
2024-02-11T10:59:10.118Z,1.83
2024-02-11T11:01:39.287Z,2.10
2024-02-11T11:04:14.433Z,2.10
2024-02-11T11:06:43.106Z,1.83
2024-02-11T11:09:13.129Z,1.98
2024-02-11T11:11:40.894Z,1.60
2024-02-11T11:14:09.146Z,1.45
2024-02-11T11:16:44.007Z,1.60
2024-02-11T11:19:14.396Z,1.70
2024-02-11T11:21:51.172Z,1.48
2024-02-11T11:24:19.883Z,1.58
2024-02-11T11:26:50.796Z,1.65
2024-02-11T11:29:21.470Z,1.58
2024-02-11T11:31:49.915Z,1.42
2024-02-11T11:34:19.405Z,1.48
2024-02-11T11:36:47.062Z,0.98
2024-02-11T11:41:46.005Z,1.30
2024-02-11T11:44:20.202Z,1.38
2024-02-11T11:46:50.916Z,1.33
2024-02-11T11:49:19.968Z,1.30
2024-02-11T11:51:48.991Z,1.00
2024-02-11T11:54:18.638Z,1.33
2024-02-11T11:56:46.701Z,1.00
2024-02-11T11:59:14.305Z,1.00
2024-02-11T12:01:41.985Z,1.30
2024-02-11T12:04:10.601Z,1.20
2024-02-11T12:06:40.516Z,0.93
2024-02-11T12:09:10.303Z,0.90
2024-02-11T12:11:39.004Z,0.75
2024-02-11T12:14:06.764Z,0.77
2024-02-11T12:16:36.678Z,0.90
2024-02-11T12:19:05.800Z,1.05
2024-02-11T12:21:33.527Z,0.88
2024-02-11T12:24:05.355Z,0.88
2024-02-11T12:26:33.971Z,0.73
2024-02-11T12:29:01.713Z,0.88
2024-02-11T12:31:29.472Z,0.82
2024-02-11T12:33:57.276Z,0.80
2024-02-11T12:36:29.633Z,0.85
2024-02-11T12:38:58.187Z,0.65
2024-02-11T12:41:28.373Z,0.73
2024-02-11T12:43:56.765Z,0.90
2024-02-11T12:46:24.901Z,0.60
2024-02-11T12:48:52.882Z,0.95
2024-02-11T12:51:21.236Z,0.50
2024-02-11T12:53:51.744Z,0.90
2024-02-11T12:56:20.308Z,0.60
2024-02-11T12:58:52.762Z,0.70
2024-02-11T13:01:23.658Z,0.80
2024-02-11T13:03:51.463Z,0.70
2024-02-11T13:06:19.248Z,0.68
2024-02-11T13:08:48.491Z,0.63
2024-02-11T13:11:21.673Z,0.77
2024-02-11T13:13:53.186Z,0.80
2024-02-11T13:16:21.547Z,0.60
2024-02-11T13:18:49.974Z,0.60
2024-02-11T13:21:18.730Z,0.50
2024-02-11T13:23:46.851Z,0.55
2024-02-11T13:26:14.552Z,0.52
2024-02-11T13:28:42.797Z,0.57
2024-02-11T13:31:20.125Z,0.55
2024-02-11T13:33:54.296Z,0.32
2024-02-11T13:36:22.008Z,0.57
2024-02-11T13:38:49.675Z,0.60
2024-02-11T13:41:17.371Z,0.70
2024-02-11T13:43:45.223Z,0.40
2024-02-11T13:46:15.331Z,0.70
2024-02-11T13:48:44.066Z,0.55
2024-02-11T13:51:12.283Z,1.02
2024-02-11T13:53:40.076Z,0.93
2024-02-11T13:56:08.369Z,0.90
2024-02-11T13:58:42.604Z,0.93
2024-02-11T14:01:11.879Z,1.13
2024-02-11T14:03:45.153Z,1.10
2024-02-11T14:06:16.789Z,1.40
2024-02-11T14:08:46.997Z,1.30
2024-02-11T14:11:15.293Z,1.42
2024-02-11T14:13:43.419Z,1.42
2024-02-11T14:16:11.676Z,1.20
2024-02-11T14:18:39.943Z,1.42
2024-02-11T14:21:09.738Z,1.40
2024-02-11T14:23:39.901Z,1.35
2024-02-11T14:26:11.249Z,1.30
2024-02-11T14:28:39.291Z,1.05
2024-02-11T14:31:07.026Z,1.08
2024-02-11T14:33:34.858Z,1.10
2024-02-11T14:36:02.697Z,1.20
2024-02-11T14:38:32.164Z,1.00
2024-02-11T14:41:00.967Z,1.25
2024-02-11T14:43:28.754Z,1.08
2024-02-11T14:45:56.584Z,1.23
2024-02-11T14:48:24.404Z,1.00
2024-02-11T14:50:52.061Z,1.08
2024-02-11T14:53:20.217Z,1.00
2024-02-11T14:55:49.371Z,0.82
2024-02-11T14:58:19.009Z,0.90
2024-02-11T15:00:48.320Z,0.80
2024-02-11T15:03:15.949Z,0.68
2024-02-11T15:05:43.690Z,0.82
2024-02-11T15:08:11.603Z,1.30
2024-02-11T15:10:39.257Z,1.42
2024-02-11T15:13:08.306Z,1.50
2024-02-11T15:15:38.094Z,1.25
2024-02-11T15:18:06.149Z,1.58
2024-02-11T15:20:34.569Z,1.67
2024-02-11T15:23:02.369Z,1.75
2024-02-11T15:25:30.933Z,1.85
2024-02-11T15:27:59.619Z,1.92
2024-02-11T15:30:28.715Z,1.90
2024-02-11T15:32:57.182Z,1.73
2024-02-11T15:35:29.389Z,1.73
2024-02-11T15:37:59.546Z,1.92
2024-02-11T15:40:27.796Z,1.55
2024-02-11T15:42:55.372Z,1.67
2024-02-11T15:45:23.007Z,1.25
2024-02-11T15:47:52.073Z,1.45
2024-02-11T15:50:21.949Z,1.30
2024-02-11T15:52:51.509Z,1.60
2024-02-11T15:55:22.265Z,1.20
2024-02-11T15:57:49.931Z,0.90
2024-02-11T16:00:21.035Z,1.38
2024-02-11T16:02:48.921Z,1.13
2024-02-11T16:05:18.017Z,0.90
2024-02-11T16:07:46.798Z,1.00
2024-02-11T16:10:15.743Z,1.23
2024-02-11T16:12:44.302Z,1.20
2024-02-11T16:15:15.231Z,0.95
2024-02-11T16:17:44.003Z,1.00
2024-02-11T16:20:18.806Z,1.33
2024-02-11T16:22:48.475Z,1.17
2024-02-11T16:25:16.794Z,1.02
2024-02-11T16:27:44.567Z,0.80
2024-02-11T16:30:13.439Z,0.90
2024-02-11T16:32:41.281Z,0.70
2024-02-11T16:35:14.644Z,0.80
2024-02-11T16:37:42.245Z,0.98
2024-02-11T16:42:43.904Z,0.70
2024-02-11T16:45:14.497Z,0.80
2024-02-11T16:47:42.148Z,0.70
2024-02-11T16:50:13.338Z,0.60
2024-02-11T16:52:41.246Z,0.82
2024-02-11T16:55:09.742Z,0.88
2024-02-11T16:57:38.893Z,0.85
2024-02-11T17:00:08.267Z,0.82
2024-02-11T17:02:36.320Z,1.00
2024-02-11T17:05:05.448Z,1.10
2024-02-11T17:07:33.964Z,0.90
2024-02-11T17:10:01.642Z,1.88
2024-02-11T17:12:30.795Z,1.30
2024-02-11T17:14:59.969Z,1.13
2024-02-11T17:17:27.744Z,1.20
2024-02-11T17:19:56.134Z,0.93
2024-02-11T17:22:23.982Z,0.85
2024-02-11T17:27:19.081Z,1.02
2024-02-11T17:32:25.451Z,1.10
2024-02-11T17:34:57.456Z,0.77
2024-02-11T17:37:26.359Z,0.90
2024-02-11T17:39:53.970Z,1.00
2024-02-11T17:44:49.947Z,0.98
2024-02-11T17:47:19.150Z,1.10
2024-02-11T17:49:47.836Z,1.02
2024-02-11T17:52:17.233Z,0.80
2024-02-11T17:54:44.937Z,1.08
2024-02-11T17:59:41.551Z,1.63
2024-02-11T18:02:11.128Z,1.08
2024-02-11T18:04:44.270Z,1.10
2024-02-11T18:07:14.461Z,1.10
2024-02-11T18:09:42.323Z,0.88
2024-02-11T18:12:10.036Z,1.20
2024-02-11T18:14:38.718Z,1.30
2024-02-11T18:17:06.630Z,1.02
2024-02-11T18:19:35.837Z,0.93
2024-02-11T18:22:05.400Z,1.23
2024-02-11T18:24:33.068Z,1.67
2024-02-11T18:29:30.216Z,1.83
2024-02-11T18:31:58.124Z,1.75
2024-02-11T18:34:25.808Z,1.85
2024-02-11T18:36:54.165Z,1.85
2024-02-11T18:39:23.934Z,2.08
2024-02-11T18:41:51.521Z,1.45
2024-02-11T18:46:46.732Z,1.88
2024-02-11T18:49:16.780Z,2.17
2024-02-11T18:51:45.586Z,1.85
2024-02-11T18:54:13.305Z,1.60
2024-02-11T18:56:42.186Z,1.90
2024-02-11T18:59:10.399Z,1.88
2024-02-11T19:01:38.281Z,1.80
2024-02-11T19:04:06.213Z,1.67
2024-02-11T19:06:34.618Z,1.48
2024-02-11T19:09:02.308Z,1.75
2024-02-11T19:11:30.083Z,1.60
2024-02-11T19:14:01.007Z,1.60
2024-02-11T19:16:29.373Z,1.77
2024-02-11T19:18:57.236Z,1.60
2024-02-11T19:21:25.565Z,1.50
2024-02-11T19:23:53.191Z,1.80
2024-02-11T19:28:48.934Z,1.52
2024-02-11T19:31:18.898Z,1.73
2024-02-11T19:34:06.457Z,1.60
2024-02-11T19:39:03.200Z,1.40
2024-02-11T19:41:30.957Z,1.50
2024-02-11T19:43:58.707Z,1.23
2024-02-11T19:46:27.870Z,1.45
2024-02-11T19:48:56.795Z,1.30
2024-02-11T19:51:29.292Z,1.50
2024-02-11T19:53:57.139Z,1.73
2024-02-11T19:56:24.708Z,1.50
2024-02-11T20:01:20.538Z,1.52
2024-02-11T20:06:18.340Z,1.60
2024-02-11T20:08:47.944Z,1.40
2024-02-11T20:11:16.052Z,1.20
2024-02-11T20:13:43.691Z,1.38
2024-02-11T20:18:41.943Z,1.30
2024-02-11T20:21:11.191Z,1.10
2024-02-11T20:23:42.032Z,1.05
2024-02-11T20:26:09.988Z,1.02
2024-02-11T20:28:37.702Z,1.17
2024-02-11T20:31:06.896Z,1.40
2024-02-11T20:33:35.007Z,1.10
2024-02-11T20:36:02.803Z,1.10
2024-02-11T20:38:31.808Z,1.17
2024-02-11T20:41:00.826Z,1.15
2024-02-11T20:43:29.981Z,1.08
2024-02-11T20:45:58.221Z,1.10
2024-02-11T20:48:26.882Z,1.20
2024-02-11T20:50:57.314Z,1.30
2024-02-11T20:53:24.996Z,1.38
2024-02-11T20:55:54.345Z,1.15
2024-02-11T20:58:22.111Z,1.05
2024-02-11T21:00:50.347Z,1.17
2024-02-11T21:03:18.179Z,1.10
2024-02-11T21:05:45.926Z,0.93
2024-02-11T21:08:14.857Z,1.10
2024-02-11T21:10:42.661Z,1.00
2024-02-11T21:13:31.710Z,1.02
2024-02-11T21:15:59.367Z,1.00
2024-02-11T21:18:27.718Z,1.08
2024-02-11T21:20:55.385Z,1.00
2024-02-11T21:23:25.192Z,1.20
2024-02-11T21:25:54.621Z,1.30
2024-02-11T21:28:23.179Z,0.98
2024-02-11T21:30:54.363Z,1.00
2024-02-11T21:33:24.447Z,0.98
2024-02-11T21:35:52.209Z,1.00
2024-02-11T21:40:47.466Z,1.10
2024-02-11T21:43:15.193Z,1.02
2024-02-11T21:48:11.993Z,1.02
2024-02-11T21:50:40.396Z,0.85
2024-02-11T21:53:08.813Z,1.25
2024-02-11T21:55:36.468Z,0.98
2024-02-11T22:00:32.673Z,1.05
2024-02-11T22:03:07.701Z,0.98
2024-02-11T22:05:37.826Z,1.05
2024-02-11T22:08:08.008Z,1.00
2024-02-11T22:10:35.779Z,1.08
2024-02-11T22:13:06.313Z,1.00
2024-02-11T22:15:33.930Z,1.25
2024-02-11T22:20:29.860Z,0.73
2024-02-11T22:22:59.562Z,1.17
2024-02-11T22:25:27.257Z,1.02
2024-02-11T22:28:12.250Z,1.20
2024-02-11T22:30:40.007Z,1.05
2024-02-11T22:35:35.164Z,0.73
2024-02-11T22:38:04.619Z,0.70
2024-02-11T22:40:32.969Z,0.88
2024-02-11T22:43:00.561Z,0.90
2024-02-11T22:47:55.669Z,0.90
2024-02-11T22:50:23.589Z,0.80
2024-02-11T22:52:54.715Z,1.13
2024-02-11T22:55:27.062Z,0.80
2024-02-11T22:57:55.240Z,0.55
2024-02-11T23:00:35.159Z,0.55
2024-02-11T23:03:06.559Z,0.88
2024-02-11T23:05:38.359Z,0.70
2024-02-11T23:08:08.702Z,0.50
2024-02-11T23:10:38.151Z,0.70
2024-02-11T23:13:05.802Z,0.47
2024-02-11T23:15:34.703Z,0.60
2024-02-11T23:18:21.529Z,0.70
2024-02-11T23:20:51.568Z,0.65
2024-02-11T23:23:19.400Z,0.43
2024-02-11T23:25:48.463Z,0.70
2024-02-11T23:28:20.214Z,0.50
2024-02-11T23:30:49.151Z,0.47
2024-02-11T23:33:17.604Z,0.50
2024-02-11T23:35:46.412Z,0.40
2024-02-11T23:38:14.287Z,0.40
2024-02-11T23:40:46.756Z,0.50
2024-02-11T23:43:15.896Z,0.63
2024-02-11T23:45:44.275Z,0.65
2024-02-11T23:48:12.452Z,0.80
2024-02-11T23:50:40.341Z,0.45
2024-02-11T23:53:08.322Z,0.55
2024-02-11T23:55:36.630Z,0.50
2024-02-11T23:58:05.498Z,0.60
